Time;durP1;ratioP1;P1;durP2;ratioP2;P2;SDS_P1;SDS_P2;PMS_P1;PMS_P2;Temp;Humidity;BMP_temperature;BMP_pressure;BME280_temperature;BME280_humidity;BME280_pressure;Samples;Min_cycle;Max_cycle;Signal;HPM_P1;HPM_P2
2022/09/05 00:01:12;;;;;;;19.00;13.00;;;;;;;14.01;89.47;101761.72;5089912;28;20061;-44
2022/09/05 00:03:52;;;;;;;19.83;12.68;;;;;;;13.99;89.10;101758.19;5114510;28;20077;-44
2022/09/05 00:06:20;;;;;;;20.73;13.57;;;;;;;13.99;90.18;101759.09;5114522;28;20030;-47
2022/09/05 00:09:03;;;;;;;15.60;13.10;;;;;;;14.04;89.13;101751.44;5113741;28;20382;-47
2022/09/05 00:11:37;;;;;;;19.45;13.65;;;;;;;14.05;89.58;101758.38;5114310;28;20024;-44
2022/09/05 00:14:36;;;;;;;20.50;13.35;;;;;;;13.93;89.48;101748.53;5113437;28;20421;-45
2022/09/05 00:17:13;;;;;;;19.45;13.52;;;;;;;13.92;90.15;101751.09;5114219;28;20038;-48
2022/09/05 00:19:51;;;;;;;18.08;12.02;;;;;;;13.93;89.25;101758.91;5114199;28;20023;-44
2022/09/05 00:22:48;;;;;;;16.38;12.65;;;;;;;13.87;90.04;101750.06;5113257;28;20039;-44
2022/09/05 00:25:22;;;;;;;18.48;13.63;;;;;;;13.89;90.44;101753.56;5114288;28;20043;-45
2022/09/05 00:28:05;;;;;;;17.42;12.43;;;;;;;13.87;90.19;101752.66;5113994;28;20031;-44
2022/09/05 00:30:43;;;;;;;16.52;13.18;;;;;;;13.79;89.82;101750.69;5113867;28;20585;-48
2022/09/05 00:33:48;;;;;;;20.30;12.27;;;;;;;13.80;89.02;101751.56;5114157;28;20027;-48
2022/09/05 00:36:19;;;;;;;17.83;14.73;;;;;;;13.78;91.43;101748.94;5111313;28;20036;-43
2022/09/05 00:38:56;;;;;;;18.17;13.93;;;;;;;13.82;91.81;101750.78;5113954;28;20112;-46
2022/09/05 00:41:22;;;;;;;20.77;15.02;;;;;;;13.92;92.16;101756.25;5113720;28;20130;-44
2022/09/05 00:43:49;;;;;;;19.58;14.27;;;;;;;13.86;91.56;101748.28;5113461;28;20099;-44
2022/09/05 00:46:21;;;;;;;16.75;12.48;;;;;;;13.87;90.27;101747.47;5113931;28;20088;-43
2022/09/05 00:49:09;;;;;;;18.67;13.25;;;;;;;13.83;89.90;101747.34;5113961;28;20080;-46
2022/09/05 00:51:43;;;;;;;20.33;12.93;;;;;;;13.84;89.37;101743.06;5113838;28;20497;-44
2022/09/05 00:54:18;;;;;;;18.10;13.13;;;;;;;13.68;90.59;101743.44;5113718;28;20024;-45
2022/09/05 00:57:07;;;;;;;24.60;12.93;;;;;;;13.64;90.32;101740.72;5112929;28;20476;-44
2022/09/05 00:59:49;;;;;;;19.27;15.57;;;;;;;13.64;91.64;101740.72;5113623;28;20075;-45
2022/09/05 01:02:30;;;;;;;16.85;13.02;;;;;;;13.63;90.69;101740.69;5113535;28;20066;-44
2022/09/05 01:05:09;;;;;;;18.83;13.07;;;;;;;13.52;90.76;101744.63;5112885;28;20019;-43
2022/09/05 01:07:56;;;;;;;18.88;13.98;;;;;;;13.52;90.56;101745.53;5113461;28;20053;-45
2022/09/05 01:10:34;;;;;;;20.25;14.73;;;;;;;13.46;90.98;101740.16;5112123;28;20391;-45
2022/09/05 01:13:18;;;;;;;17.02;14.30;;;;;;;13.47;91.46;101736.72;5113470;28;20099;-45
2022/09/05 01:16:00;;;;;;;19.58;14.20;;;;;;;13.45;91.86;101738.38;5113786;28;20036;-45
2022/09/05 01:18:46;;;;;;;18.15;14.48;;;;;;;13.47;91.09;101742.78;5112678;28;20410;-50
2022/09/05 01:21:48;;;;;;;17.50;14.15;;;;;;;13.45;90.84;101739.28;5112910;28;20043;-45
2022/09/05 01:24:27;;;;;;;19.83;15.48;;;;;;;13.37;92.30;101740.72;5113266;28;20031;-44
2022/09/05 01:26:59;;;;;;;22.65;15.15;;;;;;;13.43;93.25;101746.09;5113246;28;20046;-43
2022/09/05 01:29:37;;;;;;;19.92;15.80;;;;;;;13.43;93.82;101740.06;5113046;28;20024;-48
2022/09/05 01:32:18;;;;;;;22.05;17.27;;;;;;;13.56;93.92;101738.75;5112113;28;20387;-44
2022/09/05 01:34:52;;;;;;;18.08;15.57;;;;;;;13.52;94.32;101739.44;5113088;28;20487;-47
2022/09/05 01:37:37;;;;;;;21.95;18.15;;;;;;;13.60;94.25;101740.59;5112597;28;20097;-45
2022/09/05 01:40:26;;;;;;;24.23;17.60;;;;;;;13.62;93.70;101745.00;5115325;28;20031;-48
2022/09/05 01:43:39;;;;;;;22.88;18.17;;;;;;;13.59;93.89;101736.25;5117286;28;20047;-45
2022/09/05 01:46:21;;;;;;;22.90;17.65;;;;;;;13.63;93.18;101731.22;5116050;28;20027;-47
2022/09/05 01:49:06;;;;;;;24.13;17.88;;;;;;;13.64;93.32;101727.75;5117201;28;20118;-44
2022/09/05 01:51:45;;;;;;;23.10;17.58;;;;;;;13.61;93.82;101729.41;5116999;28;20028;-48
2022/09/05 01:54:26;;;;;;;20.60;15.73;;;;;;;13.57;93.42;101735.28;5116342;28;20028;-47
2022/09/05 01:57:19;;;;;;;24.83;16.63;;;;;;;13.58;92.84;101734.47;5117058;28;20063;-47
2022/09/05 02:00:10;;;;;;;18.60;15.77;;;;;;;13.48;92.70;101734.19;5116197;28;20058;-45
2022/09/05 02:03:13;;;;;;;20.17;16.45;;;;;;;13.49;93.05;101733.38;5117106;28;20043;-48
2022/09/05 02:05:55;;;;;;;23.52;18.00;;;;;;;13.46;93.77;101738.44;5116831;28;20080;-45
2022/09/05 02:08:26;;;;;;;24.40;17.73;;;;;;;13.44;94.28;101741.78;5115682;27;20489;-47
2022/09/05 02:11:11;;;;;;;26.90;19.17;;;;;;;13.47;93.90;101739.31;5116987;28;20106;-47
2022/09/05 02:13:37;;;;;;;26.27;19.02;;;;;;;13.46;94.40;101735.84;5115801;28;20063;-43
2022/09/05 02:16:31;;;;;;;22.60;18.65;;;;;;;13.50;93.96;101735.13;5116533;28;20491;-45
2022/09/05 02:19:13;;;;;;;24.85;18.55;;;;;;;13.48;93.88;101735.91;5116590;28;20035;-47
2022/09/05 02:22:19;;;;;;;25.98;21.10;;;;;;;13.52;94.14;101739.44;5115873;28;20020;-44
2022/09/05 02:24:52;;;;;;;27.30;20.15;;;;;;;13.47;94.36;101732.41;5074588;28;20127;-49
2022/09/05 02:27:43;;;;;;;27.27;19.92;;;;;;;13.53;93.39;101746.41;5115956;28;20015;-44
2022/09/05 02:30:13;;;;;;;34.45;21.98;;;;;;;13.50;94.35;101742.00;5116100;28;20056;-43
2022/09/05 02:33:30;;;;;;;28.55;20.90;;;;;;;13.50;93.76;101745.50;5116046;28;20024;-47
2022/09/05 02:36:11;;;;;;;30.40;21.58;;;;;;;13.48;94.32;101752.31;5095501;28;20032;-45
2022/09/05 02:38:58;;;;;;;26.10;20.50;;;;;;;13.44;93.37;101752.16;5116155;28;20183;-49
2022/09/05 02:41:41;;;;;;;20.85;17.15;;;;;;;13.26;91.88;101749.81;5115703;28;20036;-45
2022/09/05 02:44:17;;;;;;;22.67;19.08;;;;;;;13.24;93.73;101749.75;5115825;28;20085;-45
2022/09/05 02:47:14;;;;;;;23.80;18.40;;;;;;;13.25;92.54;101743.75;5116228;28;20023;-47
2022/09/05 02:50:21;;;;;;;22.33;18.55;;;;;;;13.17;92.46;101747.81;5114867;28;20038;-43
2022/09/05 02:52:48;;;;;;;25.10;19.30;;;;;;;13.21;94.34;101747.09;5115735;28;20032;-47
2022/09/05 02:55:50;;;;;;;28.90;19.70;;;;;;;13.14;94.29;101747.69;5115865;28;20105;-45
2022/09/05 02:58:52;;;;;;;25.15;19.65;;;;;;;13.18;94.24;101747.88;5042852;28;20037;-45
2022/09/05 03:01:34;;;;;;;26.33;19.83;;;;;;;13.11;94.50;101745.88;5042645;28;20140;-46
2022/09/05 03:04:23;;;;;;;26.35;21.27;;;;;;;13.10;95.27;101751.88;5114706;28;20387;-48
2022/09/05 03:07:16;;;;;;;24.20;20.52;;;;;;;13.10;94.95;101749.28;5115639;28;20024;-49
2022/09/05 03:10:15;;;;;;;24.83;20.30;;;;;;;12.97;94.49;101745.41;5115779;28;20070;-47
2022/09/05 03:12:46;;;;;;;26.50;20.02;;;;;;;12.94;94.75;101745.31;5115340;28;20030;-46
2022/09/05 03:15:33;;;;;;;28.27;20.55;;;;;;;12.95;94.47;101746.19;5115066;28;20027;-44
2022/09/05 03:18:25;;;;;;;25.35;20.60;;;;;;;12.93;94.75;101742.69;5114602;28;20520;-46
2022/09/05 03:21:13;;;;;;;24.75;19.35;;;;;;;12.93;94.54;101742.69;5115514;28;20031;-48
2022/09/05 03:24:16;;;;;;;27.83;22.00;;;;;;;12.89;95.52;101751.19;5115081;28;20047;-46
2022/09/05 03:27:15;;;;;;;26.55;21.55;;;;;;;12.88;95.98;101749.41;5115279;28;20106;-45
2022/09/05 03:30:14;;;;;;;28.88;21.48;;;;;;;12.86;96.76;101749.38;5115069;28;20115;-46
2022/09/05 03:33:19;;;;;;;27.58;21.50;;;;;;;12.90;96.23;101755.50;5114403;28;20076;-45
2022/09/05 03:36:08;;;;;;;26.50;21.92;;;;;;;12.84;96.80;101749.28;5115102;28;20050;-43
2022/09/05 03:39:11;;;;;;;24.45;19.05;;;;;;;12.82;94.44;101745.78;5114371;28;20038;-49
2022/09/05 03:41:48;;;;;;;24.67;19.45;;;;;;;12.68;94.98;101752.19;5032086;28;20185;-43
2022/09/05 03:44:43;;;;;;;30.55;21.33;;;;;;;12.67;96.10;101750.41;5032123;28;20033;-46
2022/09/05 03:47:29;;;;;;;24.30;19.40;;;;;;;12.61;95.55;101747.59;5092204;28;20100;-44
2022/09/05 03:50:33;;;;;;;28.60;21.83;;;;;;;12.59;96.04;101741.50;5114845;28;20122;-44
2022/09/05 03:53:17;;;;;;;29.23;22.45;;;;;;;12.58;97.56;101750.09;5082673;28;20043;-48
2022/09/05 03:56:26;;;;;;;26.10;22.52;;;;;;;12.60;98.18;101746.75;5114912;28;20070;-45
2022/09/05 03:59:13;;;;;;;29.25;22.23;;;;;;;12.67;98.28;101747.84;5114621;28;20034;-47
2022/09/05 04:01:44;;;;;;;;;;;;;;;12.71;94.78;101739.34;5114482;28;20046;-44
2022/09/05 04:04:41;;;;;;;28.67;19.83;;;;;;;12.63;96.34;101738.22;5114457;28;19912;-47
2022/09/05 04:07:22;;;;;;;27.52;21.35;;;;;;;12.64;97.32;101745.13;5112999;28;20031;-46
2022/09/05 04:09:58;;;;;;;27.98;21.42;;;;;;;12.61;98.13;101747.59;5114577;28;20027;-45
2022/09/05 04:12:32;;;;;;;28.10;22.27;;;;;;;12.68;98.36;101757.34;5114068;28;20432;-44
2022/09/05 04:15:04;;;;;;;26.45;20.30;;;;;;;12.61;97.41;101756.22;5113520;28;20471;-46
2022/09/05 04:17:36;;;;;;;25.88;20.73;;;;;;;12.56;97.09;101750.00;5114088;28;20028;-47
2022/09/05 04:20:10;;;;;;;26.60;20.27;;;;;;;12.48;96.70;101749.75;5114333;28;20050;-46
2022/09/05 04:23:07;;;;;;;33.05;21.98;;;;;;;12.66;99.50;101756.41;5114228;28;20030;-47
2022/09/05 04:26:05;;;;;;;29.13;21.15;;;;;;;12.65;99.33;101752.97;5114009;28;20026;-45
2022/09/05 04:29:01;;;;;;;24.30;18.98;;;;;;;12.60;98.11;101749.31;5113382;28;20111;-47
2022/09/05 04:31:44;;;;;;;27.80;19.40;;;;;;;12.52;96.04;101748.16;5113937;27;20050;-44
2022/09/05 04:34:25;;;;;;;31.60;20.90;;;;;;;12.53;97.41;101752.50;5113388;28;20360;-44
2022/09/05 04:37:05;;;;;;;25.80;20.35;;;;;;;12.44;97.75;101753.03;5113937;28;20450;-47
2022/09/05 04:39:32;;;;;;;24.40;18.83;;;;;;;12.38;96.31;101751.94;5113902;28;20081;-43
2022/09/05 04:42:03;;;;;;;22.40;20.02;;;;;;;12.32;96.90;101755.19;5112910;28;20044;-45
2022/09/05 04:44:50;;;;;;;22.75;18.17;;;;;;;12.34;97.45;101756.13;5113683;28;20027;-47
2022/09/05 04:47:21;;;;;;;33.17;21.83;;;;;;;12.36;98.71;101759.66;5113978;28;20026;-43
2022/09/05 04:49:57;;;;;;;24.25;19.25;;;;;;;12.34;98.43;101763.88;5112750;28;20390;-46
2022/09/05 04:52:23;;;;;;;21.67;19.08;;;;;;;12.38;97.36;101762.28;5113315;28;20029;-44
2022/09/05 04:55:05;;;;;;;24.00;20.17;;;;;;;12.36;97.20;101764.81;5113503;28;20028;-47
2022/09/05 04:57:56;;;;;;;24.92;18.88;;;;;;;12.33;96.50;101759.53;5112902;28;20024;-43
2022/09/05 05:00:49;;;;;;;23.83;18.50;;;;;;;12.24;96.39;101761.78;5113288;28;20044;-46
2022/09/05 05:03:18;;;;;;;23.77;19.10;;;;;;;12.21;96.64;101759.94;5112660;28;20024;-46
2022/09/05 05:05:46;;;;;;;22.90;18.50;;;;;;;12.19;96.74;101766.78;5113399;28;20028;-47
2022/09/05 05:08:24;;;;;;;24.65;19.15;;;;;;;12.19;96.97;101769.38;5113397;28;20036;-44
2022/09/05 05:11:03;;;;;;;26.20;19.85;;;;;;;12.22;96.80;101771.19;5112715;28;20031;-46
2022/09/05 05:13:44;;;;;;;31.55;21.38;;;;;;;12.26;97.71;101770.47;5113289;28;20019;-48
2022/09/05 05:16:32;;;;;;;32.47;22.65;;;;;;;12.27;99.45;101795.50;5113191;28;20039;-47
2022/09/05 05:19:13;;;;;;;32.10;22.13;;;;;;;12.52;100.00;101786.94;5113324;28;20024;-45
2022/09/05 05:21:44;;;;;;;28.63;21.52;;;;;;;12.45;100.00;101778.09;5113295;28;20034;-49
2022/09/05 05:24:14;;;;;;;24.13;21.45;;;;;;;12.41;99.59;101777.91;5112260;28;20015;-48
2022/09/05 05:27:12;;;;;;;27.63;20.60;;;;;;;12.45;99.26;101785.84;5113552;28;20099;-45
2022/09/05 05:30:05;;;;;;;25.17;20.90;;;;;;;12.55;98.52;101786.16;5113228;28;20102;-43
2022/09/05 05:32:35;;;;;;;26.15;21.38;;;;;;;12.47;98.53;101783.31;5104207;28;20050;-43
2022/09/05 05:35:12;;;;;;;26.35;20.60;;;;;;;12.54;99.04;101790.47;5113089;28;20348;-44
2022/09/05 05:37:42;;;;;;;26.20;19.92;;;;;;;12.59;98.96;101773.41;5112396;28;20030;-43
2022/09/05 05:40:29;;;;;;;27.92;22.73;;;;;;;12.65;99.61;101781.41;5113076;28;20031;-48
2022/09/05 05:43:14;;;;;;;29.67;22.00;;;;;;;12.73;99.98;101780.78;5112810;28;20498;-48
2022/09/05 05:45:40;;;;;;;27.70;22.25;;;;;;;12.78;99.75;101772.38;5112296;28;20031;-46
2022/09/05 05:48:17;;;;;;;24.70;20.90;;;;;;;12.88;99.21;101783.91;5113046;28;20019;-43
2022/09/05 05:51:02;;;;;;;28.17;21.60;;;;;;;12.90;98.63;101779.69;5112930;28;20467;-48
2022/09/05 05:53:31;;;;;;;29.85;21.58;;;;;;;12.96;98.81;101777.31;5111957;28;20028;-44
2022/09/05 05:56:34;;;;;;;28.38;21.40;;;;;;;12.99;98.94;101781.72;5113091;28;20110;-43
2022/09/05 05:59:14;;;;;;;31.65;22.90;;;;;;;13.05;99.05;101788.81;5112081;28;20059;-49
2022/09/05 06:01:57;;;;;;;32.38;23.50;;;;;;;13.11;98.46;101800.25;5112599;28;20019;-44
2022/09/05 06:04:55;;;;;;;32.50;24.80;;;;;;;13.18;98.44;101791.88;5112476;28;20027;-49
2022/09/05 06:07:29;;;;;;;32.63;25.55;;;;;;;13.36;98.58;101798.47;5111703;28;20031;-44
2022/09/05 06:10:16;;;;;;;31.88;25.20;;;;;;;13.44;99.27;101802.25;5112813;28;20031;-46
2022/09/05 06:13:38;;;;;;;33.38;25.00;;;;;;;13.53;98.28;101800.78;5112170;28;20027;-44
2022/09/05 06:16:26;;;;;;;30.23;24.50;;;;;;;13.81;97.25;101800.84;5112619;28;20078;-43
2022/09/05 06:19:20;;;;;;;30.63;25.48;;;;;;;13.97;97.15;101806.53;5112898;28;20024;-48
2022/09/05 06:21:54;;;;;;;34.45;23.35;;;;;;;14.24;96.16;101806.47;5112071;28;20055;-49
2022/09/05 06:24:56;;;;;;;30.13;23.17;;;;;;;14.32;95.86;101804.13;5112527;28;20085;-47
2022/09/05 06:27:50;;;;;;;27.00;21.70;;;;;;;14.65;93.65;101804.25;5115470;28;20055;-48
2022/09/05 06:30:19;;;;;;;24.67;21.27;;;;;;;14.81;93.39;101809.84;5116244;28;20027;-44
2022/09/05 06:32:57;;;;;;;24.52;19.77;;;;;;;15.12;89.72;101801.16;5116194;28;20412;-43
2022/09/05 06:35:31;;;;;;;25.70;19.50;;;;;;;15.36;88.70;101805.22;5115213;28;20032;-44
2022/09/05 06:38:15;;;;;;;21.90;19.40;;;;;;;15.56;87.46;101804.84;5116159;28;20494;-44
2022/09/05 06:41:01;;;;;;;22.67;18.42;;;;;;;15.88;85.72;101807.34;5116123;28;20076;-48
2022/09/05 06:43:48;;;;;;;21.00;18.17;;;;;;;16.03;84.76;101810.31;5115984;28;20046;-48
2022/09/05 06:46:34;;;;;;;20.95;17.42;;;;;;;16.32;83.51;101811.78;5115863;28;20491;-44
2022/09/05 06:49:16;;;;;;;23.42;16.60;;;;;;;16.56;82.18;101808.81;5115438;27;20042;-45
2022/09/05 06:52:02;;;;;;;25.70;16.33;;;;;;;16.82;80.02;101805.84;5115924;28;20060;-44
2022/09/05 06:55:05;;;;;;;21.33;15.38;;;;;;;17.01;79.97;101810.59;5116090;28;20020;-43
2022/09/05 06:58:02;;;;;;;18.50;15.82;;;;;;;17.29;78.24;101805.88;5115857;28;20118;-45
2022/09/05 07:00:33;;;;;;;18.17;13.68;;;;;;;17.56;75.57;101805.47;5115990;28;20046;-45
2022/09/05 07:03:20;;;;;;;19.92;14.23;;;;;;;17.80;75.04;101803.22;5115138;28;20028;-44
2022/09/05 07:06:00;;;;;;;19.05;13.77;;;;;;;17.92;75.76;101801.66;5103225;28;20027;-46
2022/09/05 07:08:46;;;;;;;21.17;14.07;;;;;;;18.09;75.74;101809.75;5097713;28;20024;-43
2022/09/05 07:11:35;;;;;;;19.52;13.88;;;;;;;18.22;75.45;101805.56;5095368;28;20031;-42
2022/09/05 07:14:08;;;;;;;22.15;13.43;;;;;;;18.37;73.62;101806.63;5093256;28;20074;-44
2022/09/05 07:16:41;;;;;;;20.33;13.90;;;;;;;18.50;73.64;101812.88;5103071;28;20074;-44
2022/09/05 07:19:29;;;;;;;19.48;12.43;;;;;;;18.54;74.41;101819.88;5112408;28;20032;-42
2022/09/05 07:22:31;;;;;;;18.17;12.13;;;;;;;18.73;72.06;101821.88;5093757;28;20024;-42
2022/09/05 07:24:57;;;;;;;18.45;12.25;;;;;;;18.92;72.10;101809.03;5080061;28;20039;-42
2022/09/05 07:27:28;;;;;;;18.05;10.88;;;;;;;19.06;70.22;101820.50;5112941;28;20023;-42
2022/09/05 07:29:57;;;;;;;18.48;10.60;;;;;;;19.30;69.55;101818.09;5114730;28;20023;-42
2022/09/05 07:32:23;;;;;;;16.98;10.70;;;;;;;19.38;67.81;101806.84;5114354;28;20042;-47
2022/09/05 07:34:50;;;;;;;20.65;10.32;;;;;;;19.60;66.38;101811.38;5115315;28;20023;-45
2022/09/05 07:37:21;;;;;;;19.92;10.32;;;;;;;19.82;67.27;101817.66;5113265;28;20380;-43
2022/09/05 07:39:58;;;;;;;15.68;10.18;;;;;;;19.89;65.96;101819.44;5114994;28;20016;-45
2022/09/05 07:42:27;;;;;;;;;;;;;;;19.94;67.03;101819.50;5115086;28;20047;-43
2022/09/05 07:45:03;;;;;;;19.23;10.77;;;;;;;20.33;64.44;101831.91;5114341;28;19977;-48
2022/09/05 07:47:33;;;;;;;15.68;10.48;;;;;;;20.54;61.67;101840.72;5114920;28;20032;-43
2022/09/05 07:50:05;;;;;;;17.63;10.80;;;;;;;20.64;61.87;101842.50;5114836;28;20020;-48
2022/09/05 07:52:37;;;;;;;14.50;11.25;;;;;;;20.75;61.15;101832.13;5114189;28;20042;-44
2022/09/05 07:55:14;;;;;;;17.17;11.38;;;;;;;20.82;61.06;101833.00;5114853;28;20040;-42
2022/09/05 07:57:46;;;;;;;13.63;11.60;;;;;;;21.01;58.94;101834.78;5114921;28;20069;-44
2022/09/05 08:00:18;;;;;;;15.68;10.60;;;;;;;21.22;58.26;101836.56;5106084;28;20535;-43
2022/09/05 08:02:45;;;;;;;17.33;11.23;;;;;;;21.39;57.73;101838.31;5108835;28;20043;-43
2022/09/05 08:05:14;;;;;;;16.17;11.32;;;;;;;21.62;57.58;101840.97;5112522;28;20024;-43
2022/09/05 08:07:43;;;;;;;16.90;11.02;;;;;;;21.79;55.86;101837.47;5094078;28;20099;-45
2022/09/05 08:10:17;;;;;;;18.95;10.00;;;;;;;21.95;56.67;101844.44;5093797;28;20046;-41
2022/09/05 08:12:47;;;;;;;14.18;9.23;;;;;;;22.18;55.21;101835.63;5093107;28;20032;-45
2022/09/05 08:15:21;;;;;;;14.95;8.52;;;;;;;22.33;53.70;101835.56;5093719;28;20052;-44
2022/09/05 08:18:05;;;;;;;16.20;8.95;;;;;;;22.53;55.50;101822.41;5092813;28;20490;-47
2022/09/05 08:20:48;;;;;;;13.18;8.40;;;;;;;22.80;55.65;101830.13;5093070;28;20032;-44
2022/09/05 08:23:50;;;;;;;14.07;7.40;;;;;;;22.99;53.88;101834.41;5093803;28;20099;-47
2022/09/05 08:26:28;;;;;;;18.50;8.00;;;;;;;23.07;51.29;101831.72;5093553;28;20028;-45
2022/09/05 08:28:58;;;;;;;18.02;7.68;;;;;;;23.23;50.76;101842.16;5093919;28;20032;-42
2022/09/05 08:31:36;;;;;;;15.40;6.53;;;;;;;23.46;50.73;101834.09;5093460;28;20031;-46
2022/09/05 08:34:09;;;;;;;11.18;5.93;;;;;;;23.55;49.89;101834.03;5092703;28;20028;-43
2022/09/05 08:36:45;;;;;;;11.05;5.57;;;;;;;23.63;51.09;101834.81;5093809;28;20050;-47
2022/09/05 08:39:14;;;;;;;13.90;6.05;;;;;;;23.86;49.30;101840.75;5093453;28;20032;-48
2022/09/05 08:41:56;;;;;;;13.02;5.85;;;;;;;24.09;50.38;101838.78;5092518;28;20044;-44
2022/09/05 08:44:34;;;;;;;13.05;5.28;;;;;;;24.19;48.86;101843.94;5093236;28;20044;-43
2022/09/05 08:47:10;;;;;;;;;;;;;;;24.30;49.60;101842.06;5094080;28;20028;-43
2022/09/05 08:49:41;;;;;;;13.63;5.15;;;;;;;24.37;47.52;101848.13;5092601;28;19911;-43
2022/09/05 08:52:16;;;;;;;12.85;4.38;;;;;;;24.45;47.76;101835.72;5093115;28;20489;-43
2022/09/05 08:54:58;;;;;;;10.35;3.97;;;;;;;24.58;48.20;101834.69;5092462;28;20085;-43
2022/09/05 08:57:43;;;;;;;9.98;3.53;;;;;;;24.84;47.28;101833.47;5093192;28;20073;-43
2022/09/05 09:00:11;;;;;;;9.40;3.35;;;;;;;25.04;45.25;101820.00;5092999;28;20024;-43
2022/09/05 09:02:53;;;;;;;8.00;3.50;;;;;;;25.31;46.69;101818.66;5092414;28;20323;-43
2022/09/05 09:05:24;;;;;;;12.73;5.05;;;;;;;25.38;44.96;101813.31;5092874;28;20020;-45
2022/09/05 09:08:38;;;;;;;12.52;5.15;;;;;;;25.53;46.60;101813.06;5093059;28;20356;-44
2022/09/05 09:11:45;;;;;;;10.27;4.72;;;;;;;25.82;46.35;101819.56;5045928;28;20039;-43
2022/09/05 09:14:29;;;;;;;8.60;3.40;;;;;;;26.01;43.43;101822.72;5093140;28;20020;-43
2022/09/05 09:17:19;;;;;;;7.63;3.38;;;;;;;26.26;42.42;101809.94;5093287;28;20403;-43
2022/09/05 09:19:50;;;;;;;7.05;3.08;;;;;;;26.31;40.42;101811.63;5092958;28;20020;-43
2022/09/05 09:22:21;;;;;;;5.32;2.65;;;;;;;26.45;39.81;101815.69;5093042;28;20035;-47
2022/09/05 09:25:01;;;;;;;8.13;3.10;;;;;;;26.50;40.64;101812.94;5092213;28;20072;-45
2022/09/05 09:27:33;;;;;;;9.85;2.40;;;;;;;26.56;39.33;101807.53;5092498;28;20118;-43
2022/09/05 09:30:03;;;;;;;9.20;2.65;;;;;;;26.91;39.74;101803.25;5092046;28;20036;-43
2022/09/05 09:32:30;;;;;;;5.22;2.50;;;;;;;27.06;38.37;101806.41;5091911;28;20024;-43
2022/09/05 09:35:07;;;;;;;7.30;2.60;;;;;;;27.40;37.47;101800.31;5092761;28;20032;-46
2022/09/05 09:37:57;;;;;;;5.60;2.33;;;;;;;27.41;37.11;101796.75;5091796;28;20077;-46
2022/09/05 09:40:49;;;;;;;7.07;2.90;;;;;;;27.47;37.53;101799.25;5092587;28;20028;-43
2022/09/05 09:43:26;;;;;;;7.88;2.40;;;;;;;27.69;36.17;101802.19;5092534;28;20476;-46
2022/09/05 09:46:15;;;;;;;5.80;2.20;;;;;;;27.73;34.92;101800.31;5092156;28;20023;-43
2022/09/05 09:49:09;;;;;;;8.77;2.40;;;;;;;27.87;36.73;101803.44;5092721;28;20036;-44
2022/09/05 09:51:44;;;;;;;7.13;2.50;;;;;;;28.48;35.87;101792.00;5094761;28;20040;-44
2022/09/05 09:54:33;;;;;;;7.35;2.30;;;;;;;28.99;33.97;101793.06;5092546;28;20078;-43
2022/09/05 09:57:31;;;;;;;8.63;2.03;;;;;;;29.30;33.77;101792.09;5092731;28;20028;-44
2022/09/05 10:00:06;;;;;;;7.78;2.05;;;;;;;29.98;31.82;101791.47;5093250;28;20056;-44
2022/09/05 10:02:51;;;;;;;6.70;2.00;;;;;;;30.68;29.77;101784.41;5096718;28;20020;-46
2022/09/05 10:05:36;;;;;;;9.07;1.95;;;;;;;31.16;29.55;101790.44;5095751;28;20050;-43
2022/09/05 10:08:37;;;;;;;10.70;1.98;;;;;;;31.27;29.46;101785.53;5100551;28;20023;-44
2022/09/05 10:11:12;;;;;;;5.47;1.70;;;;;;;31.61;27.15;101785.84;5096251;28;20455;-46
2022/09/05 10:13:55;;;;;;;7.22;1.70;;;;;;;31.75;25.30;101785.25;5094556;28;20023;-44
2022/09/05 10:16:51;;;;;;;6.45;1.98;;;;;;;31.58;25.89;101786.84;5095762;28;20040;-44
2022/09/05 10:19:35;;;;;;;;;;;;;;;32.12;27.02;101776.41;5095815;28;20043;-44
2022/09/05 10:22:37;;;;;;;3.55;1.70;;;;;;;31.92;27.01;101768.47;5096124;28;19912;-44
2022/09/05 10:25:14;;;;;;;3.90;1.50;;;;;;;32.05;26.33;101764.31;5096122;28;20035;-45
2022/09/05 10:28:17;;;;;;;5.05;1.70;;;;;;;32.46;25.41;101758.84;5094342;28;20534;-46
2022/09/05 10:30:47;;;;;;;6.28;1.63;;;;;;;32.22;24.12;101765.38;5095977;28;20570;-43
2022/09/05 10:33:28;;;;;;;4.78;1.70;;;;;;;32.26;25.65;101769.63;5095309;28;20178;-43
2022/09/05 10:36:18;;;;;;;3.45;1.77;;;;;;;32.22;24.43;101760.03;5096139;28;20099;-47
2022/09/05 10:38:48;;;;;;;6.55;1.75;;;;;;;32.49;24.50;101764.03;5095957;28;20027;-44
2022/09/05 10:41:18;;;;;;;4.68;1.73;;;;;;;32.54;23.90;101765.59;5094754;28;20043;-45
2022/09/05 10:43:51;;;;;;;7.05;1.63;;;;;;;32.43;24.57;101758.13;5096057;28;20035;-49
2022/09/05 10:46:45;;;;;;;5.75;1.77;;;;;;;32.58;24.37;101751.19;5095498;28;20424;-45
2022/09/05 10:49:14;;;;;;;4.03;1.42;;;;;;;32.77;25.05;101757.38;5094814;28;20028;-48
2022/09/05 10:51:49;;;;;;;6.55;2.10;;;;;;;32.89;24.51;101760.38;5095367;28;20539;-44
2022/09/05 10:54:49;;;;;;;8.77;1.90;;;;;;;33.29;24.89;101745.84;5094994;28;20030;-43
2022/09/05 10:57:53;;;;;;;4.20;1.60;;;;;;;33.20;25.04;101743.63;5095414;28;20364;-45
2022/09/05 11:00:37;;;;;;;4.47;1.70;;;;;;;33.28;24.08;101749.44;5095457;28;20413;-44
2022/09/05 11:03:03;;;;;;;3.42;1.50;;;;;;;33.42;23.49;101735.38;5094570;28;20383;-44
2022/09/05 11:05:37;;;;;;;3.58;1.77;;;;;;;34.05;23.93;101740.94;5095277;28;20376;-45
2022/09/05 11:08:11;;;;;;;5.75;1.55;;;;;;;34.06;21.87;101742.66;5094624;28;20494;-43
2022/09/05 11:11:02;;;;;;;4.93;1.42;;;;;;;33.99;23.48;101736.78;5095397;28;20028;-44
2022/09/05 11:13:45;;;;;;;6.53;1.50;;;;;;;34.86;23.01;101731.91;5095281;28;20027;-45
2022/09/05 11:16:20;;;;;;;3.40;1.60;;;;;;;34.27;21.76;101724.56;5094257;28;20085;-44
2022/09/05 11:19:06;;;;;;;3.65;1.38;;;;;;;34.25;22.82;101727.28;5095303;28;20043;-44
2022/09/05 11:21:48;;;;;;;3.67;1.70;;;;;;;34.37;22.62;101720.44;5095183;28;20028;-44
2022/09/05 11:24:32;;;;;;;6.07;1.70;;;;;;;35.27;22.53;101720.50;5094240;28;20043;-47
2022/09/05 11:27:05;;;;;;;5.38;1.50;;;;;;;35.30;20.79;101720.31;5095080;28;20039;-45
2022/09/05 11:29:41;;;;;;;5.45;1.75;;;;;;;34.77;21.92;101717.22;5094005;28;20387;-46
2022/09/05 11:32:09;;;;;;;;;;;;;;;35.38;22.20;101722.53;5095319;28;20020;-47
2022/09/05 11:35:05;;;;;;;4.60;1.77;;;;;;;34.84;22.54;101720.41;5094750;28;20003;-44
2022/09/05 11:37:49;;;;;;;6.15;1.40;;;;;;;34.85;21.87;101722.13;5094238;28;20024;-44
2022/09/05 11:40:37;;;;;;;3.08;1.67;;;;;;;34.60;22.64;101718.22;5094805;28;20040;-43
2022/09/05 11:43:39;;;;;;;4.35;1.40;;;;;;;34.99;22.51;101724.00;5094428;28;20056;-46
2022/09/05 11:46:31;;;;;;;5.65;1.50;;;;;;;35.00;22.70;101715.00;5094742;28;20043;-45
2022/09/05 11:49:13;;;;;;;5.20;1.67;;;;;;;35.21;22.12;101710.16;5058234;28;20081;-43
2022/09/05 11:52:08;;;;;;;6.95;1.55;;;;;;;36.43;22.29;101713.22;5093613;28;20471;-44
2022/09/05 11:55:15;;;;;;;3.90;1.60;;;;;;;36.18;21.46;101713.94;5094658;28;20028;-44
2022/09/05 11:58:04;;;;;;;5.45;1.77;;;;;;;36.24;21.40;101706.38;5062217;28;20472;-46
2022/09/05 12:00:50;;;;;;;3.22;1.55;;;;;;;37.12;20.18;101706.78;5094438;28;20024;-45
2022/09/05 12:03:51;;;;;;;5.53;1.70;;;;;;;36.64;20.43;101710.91;5094378;28;20028;-49
2022/09/05 12:06:29;;;;;;;9.18;1.50;;;;;;;36.02;19.75;101711.41;5053282;28;20379;-44
2022/09/05 12:09:09;;;;;;;4.95;1.52;;;;;;;35.76;21.16;101708.56;5094523;28;20039;-44
2022/09/05 12:12:02;;;;;;;7.03;2.13;;;;;;;35.87;21.29;101705.19;5093407;28;20054;-44
2022/09/05 12:14:45;;;;;;;2.25;1.33;;;;;;;35.48;21.50;101702.25;5094104;28;20020;-44
2022/09/05 12:17:29;;;;;;;4.85;1.50;;;;;;;35.58;21.29;101703.38;5094185;28;20105;-45
2022/09/05 12:20:21;;;;;;;7.18;1.85;;;;;;;35.76;21.43;101701.34;5093399;28;20024;-46
2022/09/05 12:23:00;;;;;;;6.80;2.38;;;;;;;35.64;20.29;101694.09;5093449;28;20349;-44
2022/09/05 12:26:16;;;;;;;4.38;1.48;;;;;;;35.81;21.37;101693.03;5093094;28;20043;-44